AirNav   Bose Proflight or Bose A20?
 
 1507 users online  

3J6 Davis Field Airport
Folkston, Georgia, USA

GOING TO FOLKSTON?


FAA INFORMATION EFFECTIVE 23 MAY 2019

Location

FAA Identifier: 3J6
Lat/Long: 30-47-46.9000N / 082-01-41.4000W
30-47.781667N / 082-01.690000W
30.7963611 / -82.0281667
(estimated)
Elevation: 68 ft. / 21 m (estimated)
Variation: 03W (1985)
From city: 3 miles SW of FOLKSTON, GA
Time zone: UTC -4 (UTC -5 during Standard Time)
Zip code: 31537

Airport Operations

Airport use: Open to the public
Activation date: 11/1962
Control tower: no
ARTCC: JACKSONVILLE CENTER
FSS: MACON FLIGHT SERVICE STATION
NOTAMs facility: MCN (NOTAM-D service available)
Attendance: UNATNDD
Wind indicator: lighted
Segmented circle: yes
Lights: MIRL RY 18/36 PRESET LOW INTST DUSK-2030; AFTER 2030 ACTVT - CTAF.
Beacon: white-green (lighted land airport)
Operates sunset to sunrise.

Airport Communications

CTAF: 122.9

Nearby radio navigation aids

VOR radial/distance  VOR name  Freq  Var
TAYr060/32.2TAYLOR VORTAC112.9003W
SSIr247/33.6BRUNSWICK VORTAC109.8004W
VQQr352/(35.7)CECIL VOR117.9003W
CRGr319/38.3CRAIG VORTAC114.5003W
AYSr136/39.3WAYCROSS VORTAC110.2000E

Airport Services

Parking: tiedowns
Airframe service: NONE
Powerplant service: NONE
Bottled oxygen: NONE
Bulk oxygen: NONE

Runway Information

Runway 18/36

Dimensions: 2500 x 50 ft. / 762 x 15 m
Surface: asphalt, in good condition
Weight bearing capacity: 
Single wheel: 12.5
Runway edge lights: medium intensity
RUNWAY 18  RUNWAY 36
Latitude: 30-47.988333N30-47.575833N
Longitude: 082-01.685000W082-01.694833W
Traffic pattern: leftright
Displaced threshold: no650 ft.
Markings: basic, in good conditionbasic, in good condition
Obstructions: 19 ft. trees, 580 ft. from runway, 100 ft. left of centerline, 20:1 slope to clear42 ft. trees, 201 ft. from runway, 100 ft. left and right of centerline
+50 FT TREES 90 FT LEFT & RIGHT AT THLD

Airport Ownership and Management from official FAA records

Ownership: Publicly-owned
Owner: CHARLTON COUNTY
68 KINGSLAND DR. STE B
FOLKSTON, GA 31537
Phone 912-496-2549
Manager: HAMPTON RAULERSON
68 KINSLAND DR., STE B
FOLKSTON, GA 31537
Phone (912) 886-3260

Airport Operational Statistics

Aircraft based on the field: 5
Single engine airplanes: 5
    
Aircraft operations: avg 61/week *
62% local general aviation
31% transient general aviation
6% military
* for 12-month period ending 01 November 2017

Additional Remarks

LGTD 272 FT AGL TOWER 1000 FT WEST.

Instrument Procedures

There are no published instrument procedures at 3J6.

Some nearby airports with instrument procedures:

KJAX - Jacksonville International Airport (25 nm SE)
4J1 - Brantley County Airport (25 nm N)
KFHB - Fernandina Beach Municipal Airport (31 nm E)
KAYS - Waycross-Ware County Airport (33 nm NW)
KHEG - Herlong Recreational Airport (33 nm S)
 
Loc | Ops | Rwys | IFR | FBO | Links
Com | Nav | Svcs | Stats | Notes
Area around 3J6 (Davis Field Airport)
 
Road maps at: MapQuest Bing Google
 
Aerial photo
WARNING: Photo may not be current or correct
Aerial photo of 3J6 (Davis Field Airport)
Do you have a better or more recent aerial photo of Davis Field Airport that you would like to share? If so, please send us your photo.

 
Sectional chart

 
Airport distance calculator
Flying to Davis Field Airport? Find the distance to fly.

From to 3J6

Sunrise and sunset
Times for 19-Jun-2019
 Local
(UTC-4)
 Zulu
(UTC)
Morning civil twilight05:5809:58
Sunrise06:2610:26
Sunset20:3300:33
Evening civil twilight21:0001:00

Current date and time
Zulu (UTC)  19-Jun-2019 16:07:54
Local (UTC-4)  19-Jun-2019 12:07:54
 
METAR
KJAX 
25nm SE 
191556Z 24010KT 10SM BKN019 BKN100 BKN200 31/23 A2993 RMK AO2 SLP136 T03060233
KFHB 
31nm E 
191555Z AUTO 21009KT 10SM SCT020 SCT027 SCT120 30/24 A2994 RMK AO2 LTG DSNT SW THRU NW T03030239
KHEG 
33nm S 
191555Z AUTO 18008KT 5SM VCTS HZ SCT024 SCT030 BKN042 30/24 A2996 RMK AO2 LTG DSNT SW-NW
KAYS 
33nm NW 
191555Z AUTO 26007KT 230V300 10SM SCT032 SCT044 SCT050 30/18 A2992 RMK AO2 T03030179 TSNO
KVQQ 
36nm S 
191550Z 19005KT 10SM BKN027 33/24 A2994
KCRG 
38nm SE 
191553Z 20011KT 10SM FEW019 SCT026 29/24 A2995 RMK AO2 SLP142 T02940239
KSSI 
39nm NE 
191553Z AUTO 22009KT 10SM SCT110 29/23 A2994 RMK AO2 SLP138 T02940233
KNIP 
39nm SE 
191553Z 16011KT 10SM SCT017 BKN024 BKN120 BKN250 29/23 A2995 RMK AO2 SLP138 CB DSNT SW-W T1 SET T02940233 $
KBQK 
40nm NE 
191555Z AUTO 20010KT 10SM BKN022 BKN030 BKN120 30/24 A2993 RMK AO2 LTG DSNT W T03010244
KNRB 
40nm SE 
191552Z 21011KT 10SM SCT020 BKN100 OVC250 31/23 A2995 RMK AO2 SLP141 T2 SET T03060233
TAF
KJAX 
25nm SE 
191137Z 1912/2012 23006KT P6SM VCSH SCT100 OVC150 FM191300 24008KT P6SM VCSH SCT025 BKN050 TEMPO 1913/1916 BKN025 FM191600 24010KT P6SM VCTS BKN030CB BKN060 TEMPO 1916/1920 VRB15G25KT 3SM TSRA BKN020CB OVC040 FM192300 22008KT P6SM SCT025 BKN150 BKN250
NOTAMs
Click for the latest NOTAMs
NOTAMs are issued by the DoD/FAA and will open in a separate window not controlled by AirNav.

 

 
 

Would you like to see your business listed on this page?

 If your business provides an interesting product or service to pilots, flight crews, aircraft, or users of the Davis Field Airport, you should consider listing it here.  To start the listing process, click on the button below
 
Add a business
 

Other Pages about Davis Field Airport

Update a link
 
Copyright © AirNav, LLC. All rights reserved. Privacy Policy  Contact